createdAt,value
2018-04-30T00:02:18.708Z,29.07
2018-04-30T00:04:46.287Z,28.87
2018-04-30T00:07:13.883Z,27.00
2018-04-30T00:09:42.273Z,29.77
2018-04-30T00:12:09.835Z,30.53
2018-04-30T00:14:37.404Z,30.60
2018-04-30T00:17:04.971Z,30.53
2018-04-30T00:19:32.547Z,30.67
2018-04-30T00:22:00.168Z,26.80
2018-04-30T00:24:28.513Z,27.83
2018-04-30T00:26:56.097Z,32.70
2018-04-30T00:29:25.191Z,28.80
2018-04-30T00:31:53.652Z,26.67
2018-04-30T00:34:21.227Z,29.70
2018-04-30T00:36:48.795Z,33.10
2018-04-30T00:39:17.128Z,28.57
2018-04-30T00:41:44.720Z,29.87
2018-04-30T00:44:12.316Z,31.20
2018-04-30T00:46:40.716Z,28.90
2018-04-30T00:49:08.289Z,31.43
2018-04-30T00:51:35.880Z,30.00
2018-04-30T00:54:03.435Z,29.07
2018-04-30T00:56:31.021Z,34.77
2018-04-30T00:58:59.371Z,31.60
2018-04-30T01:01:26.947Z,33.30
2018-04-30T01:03:54.520Z,31.43
2018-04-30T01:06:22.883Z,31.10
2018-04-30T01:08:50.476Z,31.80
2018-04-30T01:11:18.838Z,32.27
2018-04-30T01:13:47.231Z,33.23
2018-04-30T01:16:15.576Z,37.53
2018-04-30T01:18:43.172Z,34.73
2018-04-30T01:21:10.773Z,37.63
2018-04-30T01:23:38.449Z,36.40
2018-04-30T01:26:06.032Z,37.80
2018-04-30T01:28:33.632Z,31.57
2018-04-30T01:31:01.207Z,38.60
2018-04-30T01:33:28.896Z,34.63
2018-04-30T01:35:56.452Z,33.60
2018-04-30T01:38:24.028Z,35.13
2018-04-30T01:40:52.383Z,36.27
2018-04-30T01:43:20.044Z,33.53
2018-04-30T01:45:47.640Z,34.83
2018-04-30T01:48:15.231Z,40.63
2018-04-30T01:50:42.819Z,36.40
2018-04-30T01:53:10.399Z,40.50
2018-04-30T01:55:37.972Z,37.27
2018-04-30T01:58:05.630Z,36.17
2018-04-30T02:00:33.260Z,43.37
2018-04-30T02:03:00.932Z,43.90
2018-04-30T02:05:28.524Z,42.90
2018-04-30T02:07:56.117Z,40.40
2018-04-30T02:10:24.447Z,45.10
2018-04-30T02:12:52.052Z,38.97
2018-04-30T02:15:20.404Z,40.87
2018-04-30T02:17:47.979Z,43.20
2018-04-30T02:20:15.552Z,44.70
2018-04-30T02:22:43.900Z,48.03
2018-04-30T02:25:11.479Z,50.90
2018-04-30T02:27:39.087Z,52.27
2018-04-30T02:30:06.788Z,55.50
2018-04-30T02:32:34.399Z,54.93
2018-04-30T02:35:01.962Z,56.13
2018-04-30T02:37:30.307Z,53.27
2018-04-30T02:39:57.884Z,54.83
2018-04-30T02:42:26.239Z,57.43
2018-04-30T02:44:53.842Z,54.50
2018-04-30T02:47:21.443Z,59.57
2018-04-30T02:49:49.048Z,63.57
2018-04-30T02:52:17.409Z,56.40
2018-04-30T02:54:44.970Z,54.73
2018-04-30T02:57:12.616Z,61.37
2018-04-30T02:59:40.214Z,67.10
2018-04-30T03:02:08.538Z,55.23
2018-04-30T03:04:36.128Z,59.50
2018-04-30T03:07:03.692Z,61.93
2018-04-30T03:09:31.297Z,64.00
2018-04-30T03:11:58.883Z,61.20
2018-04-30T03:14:26.510Z,76.53
2018-04-30T03:16:54.081Z,66.40
2018-04-30T03:19:21.705Z,75.40
2018-04-30T03:21:49.291Z,72.43
2018-04-30T03:24:17.658Z,66.67
2018-04-30T03:26:46.002Z,76.53
2018-04-30T03:29:13.603Z,77.53
2018-04-30T03:31:41.197Z,78.20
2018-04-30T03:34:08.771Z,75.90
2018-04-30T03:36:36.414Z,70.30
2018-04-30T03:39:04.001Z,74.13
2018-04-30T03:41:31.605Z,72.60
2018-04-30T03:43:59.950Z,73.70
2018-04-30T03:46:27.524Z,66.40
2018-04-30T03:48:55.104Z,69.97
2018-04-30T03:51:23.482Z,90.23
2018-04-30T03:53:51.103Z,76.47
2018-04-30T03:56:18.824Z,66.00
2018-04-30T03:58:47.160Z,70.93
2018-04-30T04:01:26.823Z,70.83
2018-04-30T04:04:06.056Z,73.40
2018-04-30T04:06:45.309Z,68.20
2018-04-30T04:09:13.649Z,68.77
2018-04-30T04:11:41.235Z,65.53
2018-04-30T04:14:08.856Z,82.23
2018-04-30T04:16:36.448Z,75.03
2018-04-30T04:19:05.529Z,74.60
2018-04-30T04:21:33.214Z,78.10
2018-04-30T04:24:00.776Z,79.80
2018-04-30T04:26:28.369Z,77.83
2018-04-30T04:28:56.705Z,94.50
2018-04-30T04:31:24.296Z,76.77
2018-04-30T04:33:52.757Z,76.07
2018-04-30T04:36:20.341Z,73.50
2018-04-30T04:38:48.704Z,66.57
2018-04-30T04:41:16.339Z,63.10
2018-04-30T04:43:43.935Z,61.63
2018-04-30T04:46:12.301Z,51.33
2018-04-30T04:48:39.992Z,52.50
2018-04-30T04:51:08.336Z,52.97
2018-04-30T04:53:35.939Z,48.30
2018-04-30T04:56:04.271Z,45.50
2018-04-30T04:58:31.872Z,42.20
2018-04-30T05:01:00.873Z,45.60
2018-04-30T05:03:29.615Z,40.43
2018-04-30T05:05:57.172Z,32.30
2018-04-30T05:08:24.786Z,28.73
2018-04-30T05:10:52.492Z,30.63
2018-04-30T05:13:20.041Z,21.90
2018-04-30T05:15:47.613Z,20.83
2018-04-30T05:18:15.207Z,27.20
2018-04-30T05:20:42.775Z,21.00
2018-04-30T05:23:11.118Z,20.13
2018-04-30T05:25:38.710Z,19.03
2018-04-30T05:28:07.047Z,25.80
2018-04-30T05:30:34.668Z,17.37
2018-04-30T05:33:02.280Z,16.97
2018-04-30T05:35:29.889Z,19.10
2018-04-30T05:37:58.220Z,16.37
2018-04-30T05:40:26.847Z,16.83
2018-04-30T05:42:55.189Z,22.37
2018-04-30T05:45:22.787Z,18.67
2018-04-30T05:47:51.219Z,14.60
2018-04-30T05:50:18.824Z,17.37
2018-04-30T05:52:47.144Z,16.60
2018-04-30T05:55:14.742Z,16.90
2018-04-30T05:57:42.291Z,14.60
2018-04-30T06:00:09.888Z,17.03
2018-04-30T06:02:37.442Z,16.93
2018-04-30T06:05:05.823Z,16.70
2018-04-30T06:07:34.167Z,12.93
2018-04-30T06:10:01.805Z,13.83
2018-04-30T06:12:29.403Z,18.90
2018-04-30T06:14:57.101Z,15.03
2018-04-30T06:17:25.520Z,25.83
2018-04-30T06:19:53.028Z,23.20
2018-04-30T06:22:21.401Z,19.10
2018-04-30T06:24:49.025Z,16.13
2018-04-30T06:27:16.611Z,12.50
2018-04-30T06:29:44.259Z,17.53
2018-04-30T06:32:11.837Z,13.17
2018-04-30T06:34:39.401Z,14.07
2018-04-30T06:37:06.987Z,17.53
2018-04-30T06:39:35.347Z,18.67
2018-04-30T06:42:02.957Z,14.10
2018-04-30T06:44:30.544Z,15.20
2018-04-30T06:46:58.141Z,21.23
2018-04-30T06:49:26.536Z,15.10
2018-04-30T06:51:54.106Z,14.33
2018-04-30T06:54:21.714Z,12.20
2018-04-30T06:56:49.296Z,11.90
2018-04-30T06:59:16.914Z,13.27
2018-04-30T07:01:44.465Z,13.27
2018-04-30T07:04:12.077Z,13.47
2018-04-30T07:06:39.651Z,12.00
2018-04-30T07:09:08.038Z,13.17
2018-04-30T07:11:35.567Z,14.83
2018-04-30T07:14:03.204Z,13.93
2018-04-30T07:16:30.788Z,14.10
2018-04-30T07:18:58.361Z,13.60
2018-04-30T07:21:25.933Z,14.67
2018-04-30T07:23:54.315Z,13.73
2018-04-30T07:26:21.883Z,12.60
2018-04-30T07:28:50.220Z,13.80
2018-04-30T07:31:17.802Z,13.20
2018-04-30T07:33:45.366Z,16.93
2018-04-30T07:36:12.941Z,13.17
2018-04-30T07:38:41.357Z,15.00
2018-04-30T07:41:09.056Z,15.23
2018-04-30T07:43:36.616Z,13.27
2018-04-30T07:46:04.208Z,12.07
2018-04-30T07:48:32.568Z,15.83
2018-04-30T07:51:00.144Z,23.33
2018-04-30T07:53:28.482Z,18.27
2018-04-30T07:55:56.040Z,16.20
2018-04-30T07:58:23.643Z,14.87
2018-04-30T08:00:51.238Z,25.23
2018-04-30T08:03:18.811Z,18.13
2018-04-30T08:05:46.428Z,14.87
2018-04-30T08:08:14.032Z,22.83
2018-04-30T08:10:41.597Z,19.23
2018-04-30T08:13:09.179Z,18.17
2018-04-30T08:15:37.323Z,17.10
2018-04-30T08:18:04.968Z,14.77
2018-04-30T08:20:32.566Z,16.47
2018-04-30T08:23:00.145Z,22.67
2018-04-30T08:25:27.944Z,16.73
2018-04-30T08:27:56.353Z,18.13
2018-04-30T08:30:23.903Z,16.47
2018-04-30T08:32:51.532Z,14.37
2018-04-30T08:35:20.338Z,15.47
2018-04-30T08:37:48.709Z,14.17
2018-04-30T08:40:17.133Z,19.57
2018-04-30T08:42:44.709Z,18.20
2018-04-30T08:45:12.268Z,15.47
2018-04-30T08:47:39.912Z,16.07
2018-04-30T08:50:07.478Z,15.33
2018-04-30T08:52:35.024Z,16.20
2018-04-30T08:55:02.707Z,18.13
2018-04-30T08:57:30.308Z,17.87
2018-04-30T08:59:57.904Z,14.73
2018-04-30T09:02:25.463Z,17.57
2018-04-30T09:04:53.042Z,14.87
2018-04-30T09:07:20.604Z,13.83
2018-04-30T09:09:48.478Z,14.17
2018-04-30T09:12:16.044Z,16.00
2018-04-30T09:14:43.609Z,17.03
2018-04-30T09:17:11.194Z,19.27
2018-04-30T09:19:38.798Z,20.30
2018-04-30T09:22:07.151Z,14.77
2018-04-30T09:24:34.860Z,17.03
2018-04-30T09:27:02.446Z,17.00
2018-04-30T09:29:30.046Z,16.90
2018-04-30T09:31:58.402Z,18.13
2018-04-30T09:34:26.871Z,13.87
2018-04-30T09:36:54.426Z,16.30
2018-04-30T09:39:22.028Z,14.30
2018-04-30T09:41:50.441Z,15.60
2018-04-30T09:44:18.026Z,17.97
2018-04-30T09:46:45.637Z,15.20
2018-04-30T09:49:14.222Z,21.77
2018-04-30T09:51:41.797Z,18.43
2018-04-30T09:54:09.372Z,18.63
2018-04-30T09:56:37.006Z,13.80
2018-04-30T09:59:05.369Z,15.03
2018-04-30T10:01:32.977Z,14.90
2018-04-30T10:04:00.576Z,15.77
2018-04-30T10:06:28.168Z,29.63
2018-04-30T10:08:56.498Z,17.53
2018-04-30T10:11:24.076Z,15.30
2018-04-30T10:13:51.813Z,15.40
2018-04-30T10:16:19.420Z,17.90
2018-04-30T10:18:47.024Z,18.57
2018-04-30T10:21:14.589Z,18.73
2018-04-30T10:23:42.245Z,13.27
2018-04-30T10:26:09.815Z,20.80
2018-04-30T10:28:37.483Z,16.90
2018-04-30T10:31:05.048Z,16.03
2018-04-30T10:33:32.633Z,15.87
2018-04-30T10:36:00.196Z,15.13
2018-04-30T10:38:28.502Z,17.50
2018-04-30T10:40:57.029Z,17.50
2018-04-30T10:43:24.625Z,18.83
2018-04-30T10:45:52.257Z,12.20
2018-04-30T10:48:19.851Z,14.50
2018-04-30T10:50:47.435Z,21.50
2018-04-30T10:53:15.797Z,17.50
2018-04-30T10:55:43.370Z,12.77
2018-04-30T10:58:11.741Z,28.20
2018-04-30T11:00:40.138Z,16.00
2018-04-30T11:03:08.512Z,15.50
2018-04-30T11:05:37.309Z,16.70
2018-04-30T11:08:05.712Z,16.43
2018-04-30T11:10:33.362Z,23.03
2018-04-30T11:13:01.035Z,18.53
2018-04-30T11:15:28.637Z,20.03
2018-04-30T11:17:56.405Z,13.53
2018-04-30T11:20:24.039Z,17.40
2018-04-30T11:22:51.630Z,13.53
2018-04-30T11:25:19.287Z,13.13
2018-04-30T11:27:47.226Z,18.70
2018-04-30T11:30:14.878Z,27.07
2018-04-30T11:32:42.458Z,14.97
2018-04-30T11:35:10.900Z,14.63
2018-04-30T11:37:39.253Z,14.73
2018-04-30T11:40:06.927Z,15.27
2018-04-30T11:42:35.181Z,14.60
2018-04-30T11:45:02.735Z,13.47
2018-04-30T11:47:30.292Z,17.30
2018-04-30T11:49:57.951Z,15.50
2018-04-30T11:52:25.544Z,22.33
2018-04-30T11:54:53.144Z,18.40
2018-04-30T11:57:20.705Z,17.10
2018-04-30T11:59:48.312Z,16.70
2018-04-30T12:02:15.919Z,19.70
2018-04-30T12:04:43.475Z,15.50
2018-04-30T12:07:11.064Z,14.00
2018-04-30T12:09:38.632Z,21.93
2018-04-30T12:12:06.275Z,13.40
2018-04-30T12:14:33.836Z,19.33
2018-04-30T12:17:01.451Z,14.80
2018-04-30T12:19:29.138Z,16.00
2018-04-30T12:21:57.538Z,16.40
2018-04-30T12:24:25.084Z,17.43
2018-04-30T12:26:52.681Z,15.40
2018-04-30T12:29:20.287Z,12.90
2018-04-30T12:31:48.686Z,14.53
2018-04-30T12:34:16.265Z,20.63
2018-04-30T12:36:43.852Z,14.30
2018-04-30T12:39:11.468Z,17.83
2018-04-30T12:41:39.835Z,12.90
2018-04-30T12:44:08.253Z,12.73
2018-04-30T12:46:35.815Z,14.47
2018-04-30T12:49:03.405Z,14.93
2018-04-30T12:51:31.014Z,15.57
2018-04-30T12:53:58.613Z,14.63
2018-04-30T12:56:26.202Z,17.37
2018-04-30T12:58:53.864Z,18.03
2018-04-30T13:01:21.495Z,13.30
2018-04-30T13:03:49.854Z,12.67
2018-04-30T13:06:17.412Z,17.63
2018-04-30T13:08:45.118Z,13.07
2018-04-30T13:11:12.692Z,14.80
2018-04-30T13:13:40.352Z,22.03
2018-04-30T13:16:07.976Z,22.10
2018-04-30T13:18:35.581Z,13.40
2018-04-30T13:21:03.733Z,17.80
2018-04-30T13:23:31.308Z,15.43
2018-04-30T13:25:58.926Z,13.13
2018-04-30T13:28:26.511Z,20.63
2018-04-30T13:30:54.903Z,21.17
2018-04-30T13:33:22.456Z,18.40
2018-04-30T13:35:50.056Z,18.87
2018-04-30T13:38:17.616Z,26.13
2018-04-30T13:40:45.994Z,25.30
2018-04-30T13:43:13.592Z,25.37
2018-04-30T13:45:41.188Z,20.13
2018-04-30T13:48:08.813Z,16.73
2018-04-30T13:50:36.414Z,15.53
2018-04-30T13:53:03.984Z,13.70
2018-04-30T13:55:31.545Z,18.33
2018-04-30T13:58:00.116Z,18.50
2018-04-30T14:00:27.696Z,28.30
2018-04-30T14:02:55.305Z,25.13
2018-04-30T14:05:22.903Z,24.73
2018-04-30T14:07:50.486Z,16.80
2018-04-30T14:10:18.642Z,21.00
2018-04-30T14:12:46.242Z,18.83
2018-04-30T14:15:14.611Z,15.00
2018-04-30T14:17:42.298Z,19.67
2018-04-30T14:20:09.877Z,14.80
2018-04-30T14:22:38.428Z,15.10
2018-04-30T14:25:06.762Z,13.90
2018-04-30T14:27:34.345Z,16.07
2018-04-30T14:30:01.926Z,17.63
2018-04-30T14:32:30.272Z,19.07
2018-04-30T14:34:57.906Z,18.00
2018-04-30T14:37:26.229Z,16.70
2018-04-30T14:39:53.772Z,16.07
2018-04-30T14:42:21.364Z,16.93
2018-04-30T14:44:49.742Z,12.83
2018-04-30T14:47:17.348Z,12.90
2018-04-30T14:49:45.740Z,20.13
2018-04-30T14:52:13.329Z,22.90
2018-04-30T14:54:41.070Z,17.10
2018-04-30T14:57:08.657Z,15.73
2018-04-30T14:59:36.247Z,13.60
2018-04-30T15:02:03.834Z,13.03
2018-04-30T15:04:31.444Z,18.00
2018-04-30T15:06:59.028Z,13.40
2018-04-30T15:09:27.437Z,19.17
2018-04-30T15:11:55.041Z,21.60
2018-04-30T15:14:22.621Z,26.47
2018-04-30T15:16:50.987Z,15.03
2018-04-30T15:19:18.575Z,14.87
2018-04-30T15:21:46.160Z,16.67
2018-04-30T15:24:13.728Z,21.00
2018-04-30T15:26:41.332Z,13.37
2018-04-30T15:29:08.927Z,16.67
2018-04-30T15:31:37.252Z,15.30
2018-04-30T15:34:04.827Z,12.93
2018-04-30T15:36:32.444Z,13.53
2018-04-30T15:39:00.032Z,15.93
2018-04-30T15:41:27.643Z,16.33
2018-04-30T15:43:55.272Z,18.13
2018-04-30T15:46:23.612Z,17.93
2018-04-30T15:48:51.195Z,13.73
2018-04-30T15:51:18.791Z,14.97
2018-04-30T15:53:47.252Z,14.93
2018-04-30T15:56:14.819Z,15.57
2018-04-30T15:58:42.489Z,16.47
2018-04-30T16:01:10.029Z,14.63
2018-04-30T16:03:37.613Z,14.63
2018-04-30T16:06:05.199Z,29.63
2018-04-30T16:08:33.548Z,14.00
2018-04-30T16:11:01.943Z,17.33
2018-04-30T16:13:30.300Z,15.83
2018-04-30T16:15:57.888Z,15.70
2018-04-30T16:18:26.295Z,18.50
2018-04-30T16:20:53.949Z,17.50
2018-04-30T16:23:21.530Z,15.27
2018-04-30T16:25:49.113Z,15.57
2018-04-30T16:28:16.706Z,21.63
2018-04-30T16:30:45.064Z,13.10
2018-04-30T16:33:12.624Z,14.57
2018-04-30T16:35:40.202Z,14.57
2018-04-30T16:38:07.813Z,15.77
2018-04-30T16:40:35.408Z,16.67
2018-04-30T16:43:03.011Z,13.30
2018-04-30T16:45:31.392Z,14.93
2018-04-30T16:47:59.845Z,13.97
2018-04-30T16:50:27.409Z,14.57
2018-04-30T16:52:55.763Z,16.40
2018-04-30T16:55:23.378Z,15.40
2018-04-30T16:57:50.988Z,14.20
2018-04-30T17:00:18.653Z,24.70
2018-04-30T17:02:46.211Z,19.27
2018-04-30T17:05:13.813Z,18.43
2018-04-30T17:07:42.172Z,15.23
2018-04-30T17:10:09.777Z,15.83
2018-04-30T17:12:37.427Z,24.67
2018-04-30T17:15:05.019Z,14.87
2018-04-30T17:17:32.640Z,17.50
2018-04-30T17:20:01.020Z,16.77
2018-04-30T17:22:29.452Z,22.30
2018-04-30T17:24:57.021Z,14.77
2018-04-30T17:27:25.144Z,17.60
2018-04-30T17:29:52.760Z,17.50
2018-04-30T17:32:21.417Z,21.30
2018-04-30T17:34:49.020Z,14.53
2018-04-30T17:37:16.664Z,18.53
2018-04-30T17:39:44.280Z,20.90
2018-04-30T17:42:12.629Z,17.20
2018-04-30T17:44:40.236Z,17.03
2018-04-30T17:47:07.985Z,23.73
2018-04-30T17:49:35.557Z,15.40
2018-04-30T17:52:03.111Z,13.00
2018-04-30T17:54:30.716Z,13.70
2018-04-30T17:56:58.333Z,13.10
2018-04-30T17:59:25.992Z,14.83
2018-04-30T18:01:53.574Z,15.93
2018-04-30T18:04:21.211Z,15.73
2018-04-30T18:06:49.633Z,17.60
2018-04-30T18:09:17.208Z,17.40
2018-04-30T18:11:44.810Z,18.53
2018-04-30T18:14:13.186Z,21.77
2018-04-30T18:16:41.521Z,19.30
2018-04-30T18:19:09.146Z,18.60
2018-04-30T18:21:36.738Z,13.57
2018-04-30T18:24:04.325Z,17.80
2018-04-30T18:26:32.733Z,15.70
2018-04-30T18:29:00.304Z,17.43
2018-04-30T18:31:27.882Z,14.43
2018-04-30T18:33:55.526Z,15.50
2018-04-30T18:36:23.173Z,21.47
2018-04-30T18:38:51.542Z,14.90
2018-04-30T18:41:19.187Z,17.80
2018-04-30T18:43:47.789Z,16.73
2018-04-30T18:46:16.155Z,15.97
2018-04-30T18:48:43.783Z,21.10
2018-04-30T18:51:11.431Z,29.00
2018-04-30T18:53:38.993Z,20.67
2018-04-30T18:56:06.604Z,16.33
2018-04-30T18:58:34.182Z,16.80
2018-04-30T19:01:02.545Z,13.43
2018-04-30T19:03:30.121Z,15.77
2018-04-30T19:05:59.335Z,19.83
2018-04-30T19:08:27.733Z,18.20
2018-04-30T19:10:55.334Z,17.50
2018-04-30T19:13:23.001Z,19.63
2018-04-30T19:15:51.387Z,14.43
2018-04-30T19:18:19.005Z,31.47
2018-04-30T19:20:46.623Z,19.80
2018-04-30T19:23:14.235Z,20.50
2018-04-30T19:25:41.860Z,15.63
2018-04-30T19:28:10.213Z,30.03
2018-04-30T19:30:37.830Z,23.67
2018-04-30T19:33:05.530Z,22.93
2018-04-30T19:35:33.156Z,22.20
2018-04-30T19:38:00.863Z,19.00
2018-04-30T19:40:28.422Z,16.13
2018-04-30T19:42:56.023Z,14.63
2018-04-30T19:45:23.662Z,14.60
2018-04-30T19:47:51.705Z,16.20
2018-04-30T19:50:19.281Z,22.37
2018-04-30T19:52:46.921Z,19.03
2018-04-30T19:55:14.545Z,18.73
2018-04-30T19:57:42.908Z,14.93
2018-04-30T20:00:11.283Z,15.43
2018-04-30T20:02:38.932Z,15.33
2018-04-30T20:05:06.530Z,15.17
2018-04-30T20:07:34.108Z,15.13
2018-04-30T20:10:01.907Z,16.63
2018-04-30T20:12:29.492Z,15.23
2018-04-30T20:14:57.897Z,14.73
2018-04-30T20:17:26.251Z,15.50
2018-04-30T20:19:53.850Z,13.60
2018-04-30T20:22:21.439Z,16.53
2018-04-30T20:24:49.052Z,17.77
2018-04-30T20:27:17.424Z,18.53
2018-04-30T20:29:45.870Z,20.20
2018-04-30T20:32:13.437Z,19.97
2018-04-30T20:34:40.985Z,17.40
2018-04-30T20:37:08.600Z,19.23
2018-04-30T20:39:36.192Z,21.50
2018-04-30T20:42:03.779Z,18.40
2018-04-30T20:44:31.468Z,14.87
2018-04-30T20:46:59.063Z,21.27
2018-04-30T20:49:26.670Z,18.03
2018-04-30T20:51:54.259Z,15.80
2018-04-30T20:54:22.637Z,19.53
2018-04-30T20:56:51.061Z,21.63
2018-04-30T20:59:18.613Z,20.27
2018-04-30T21:01:46.225Z,19.93
2018-04-30T21:04:13.799Z,17.23
2018-04-30T21:06:42.163Z,14.20
2018-04-30T21:09:13.732Z,16.97
2018-04-30T21:11:41.317Z,19.80
2018-04-30T21:14:08.943Z,20.23
2018-04-30T21:16:36.542Z,14.30
2018-04-30T21:19:04.116Z,13.93
2018-04-30T21:21:31.684Z,15.43
2018-04-30T21:23:59.260Z,13.47
2018-04-30T21:26:26.846Z,15.23
2018-04-30T21:28:54.642Z,13.60
2018-04-30T21:31:23.032Z,12.87
2018-04-30T21:33:50.608Z,15.83
2018-04-30T21:36:18.929Z,16.40
2018-04-30T21:38:46.520Z,16.13
2018-04-30T21:41:14.887Z,13.90
2018-04-30T21:43:43.254Z,16.70
2018-04-30T21:46:10.905Z,24.50
2018-04-30T21:48:38.487Z,24.20
2018-04-30T21:51:06.856Z,19.00
2018-04-30T21:53:34.464Z,14.27
2018-04-30T21:56:02.055Z,17.63
2018-04-30T21:58:29.681Z,16.53
2018-04-30T22:00:57.274Z,20.03
2018-04-30T22:03:24.826Z,15.37
2018-04-30T22:05:52.411Z,13.90
2018-04-30T22:08:19.996Z,16.10
2018-04-30T22:10:47.572Z,15.33
2018-04-30T22:13:15.922Z,12.87
2018-04-30T22:15:43.510Z,15.23
2018-04-30T22:18:11.837Z,23.73
2018-04-30T22:20:39.477Z,15.70
2018-04-30T22:23:07.044Z,17.90
2018-04-30T22:25:34.606Z,12.93
2018-04-30T22:28:02.190Z,14.73
2018-04-30T22:30:29.781Z,22.37
2018-04-30T22:32:58.116Z,13.63
2018-04-30T22:35:25.755Z,14.87
2018-04-30T22:37:53.327Z,13.57
2018-04-30T22:40:20.911Z,17.53
2018-04-30T22:42:48.807Z,16.00
2018-04-30T22:45:16.460Z,14.90
2018-04-30T22:47:44.084Z,16.03
2018-04-30T22:50:11.783Z,17.67
2018-04-30T22:52:39.366Z,14.60
2018-04-30T22:55:07.803Z,21.87
2018-04-30T22:57:36.380Z,24.47
2018-04-30T23:00:03.971Z,16.33
2018-04-30T23:02:31.580Z,18.30
2018-04-30T23:04:59.144Z,15.80
2018-04-30T23:07:26.848Z,19.00
2018-04-30T23:09:54.448Z,20.30
2018-04-30T23:12:22.816Z,19.33
2018-04-30T23:14:51.231Z,16.40
2018-04-30T23:17:18.872Z,16.83
2018-04-30T23:19:47.223Z,27.00
2018-04-30T23:22:15.315Z,15.70
2018-04-30T23:24:43.850Z,17.23
2018-04-30T23:27:11.423Z,17.47
2018-04-30T23:29:39.028Z,25.43
2018-04-30T23:32:07.389Z,15.27
2018-04-30T23:34:35.015Z,19.07
2018-04-30T23:37:02.676Z,18.13
2018-04-30T23:39:30.149Z,17.13
2018-04-30T23:41:57.715Z,22.30
2018-04-30T23:44:25.285Z,19.07
2018-04-30T23:46:53.432Z,15.33
2018-04-30T23:49:21.027Z,16.70
2018-04-30T23:51:48.601Z,20.60
2018-04-30T23:54:17.655Z,16.67
2018-04-30T23:56:45.227Z,23.93
2018-04-30T23:59:12.811Z,24.47
